Time;durP1;ratioP1;P1;durP2;ratioP2;P2;SDS_P1;SDS_P2;PMS_P1;PMS_P2;Temp;Humidity;BMP_temperature;BMP_pressure;BME280_temperature;BME280_humidity;BME280_pressure;Samples;Min_cycle;Max_cycle;Signal;HPM_P1;HPM_P2
2023/09/24 00:02:18;;;;;;;;;35.33;29.00;;;;;;;;5084940;27;45923;-84
2023/09/24 00:04:43;;;;;;;;;30.67;27.00;;;;;;;;5095226;27;47050;-81
2023/09/24 00:07:10;;;;;;;;;27.67;24.33;;;;;;;;5096085;27;45443;-82
2023/09/24 00:09:35;;;;;;;;;32.00;28.00;;;;;;;;5089516;27;45333;-83
2023/09/24 00:12:00;;;;;;;;;33.67;29.67;;;;;;;;5081427;27;45544;-83
2023/09/24 00:14:30;;;;;;;;;25.33;24.33;;;;;;;;5093861;27;45320;-81
2023/09/24 00:16:56;;;;;;;;;27.33;23.33;;;;;;;;5096566;27;45376;-81
2023/09/24 00:19:21;;;;;;;;;27.33;23.67;;;;;;;;5077898;27;45389;-83
2023/09/24 00:21:49;;;;;;;;;24.00;22.67;;;;;;;;5076793;27;45512;-81
2023/09/24 00:24:17;;;;;;;;;20.00;20.00;;;;;;;;5096314;27;45647;-83
2023/09/24 00:26:42;;;;;;;;;23.00;20.33;;;;;;;;5085158;27;45891;-82
2023/09/24 00:29:08;;;;;;;;;21.00;21.00;;;;;;;;5093042;27;45625;-81
2023/09/24 00:31:33;;;;;;;;;24.67;23.33;;;;;;;;5095343;27;45473;-82
2023/09/24 00:33:58;;;;;;;;;31.33;25.33;;;;;;;;5094781;27;45943;-82
2023/09/24 00:36:25;;;;;;;;;24.00;23.33;;;;;;;;5085452;27;45355;-82
2023/09/24 00:38:50;;;;;;;;;25.33;23.67;;;;;;;;5079620;27;45517;-82
2023/09/24 00:41:17;;;;;;;;;31.00;25.33;;;;;;;;5090973;27;45366;-82
2023/09/24 00:43:43;;;;;;;;;27.33;24.00;;;;;;;;5077646;27;46477;-82
2023/09/24 00:46:09;;;;;;;;;26.67;22.00;;;;;;;;5079464;27;45441;-82
2023/09/24 00:48:36;;;;;;;;;26.67;18.67;;;;;;;;5091584;27;45899;-83
2023/09/24 00:51:02;;;;;;;;;24.33;19.33;;;;;;;;5090758;27;45642;-81
2023/09/24 00:53:32;;;;;;;;;28.33;24.33;;;;;;;;5079021;27;46617;-82
2023/09/24 00:55:58;;;;;;;;;20.67;19.00;;;;;;;;5094055;27;45751;-82
2023/09/24 00:58:24;;;;;;;;;20.33;18.00;;;;;;;;5094408;27;45474;-81
2023/09/24 01:00:51;;;;;;;;;22.00;18.67;;;;;;;;5096887;27;45432;-81
2023/09/24 01:03:18;;;;;;;;;23.00;18.33;;;;;;;;5091834;27;45962;-81
2023/09/24 01:05:44;;;;;;;;;19.33;15.33;;;;;;;;5088927;27;45559;-82
2023/09/24 01:08:10;;;;;;;;;74.50;58.25;;;;;;;;5095378;27;45455;-81
2023/09/24 01:10:35;;;;;;;;;23.67;21.00;;;;;;;;5100643;27;45623;-81
2023/09/24 01:13:00;;;;;;;;;29.33;22.00;;;;;;;;5098879;27;48554;-81
2023/09/24 01:15:27;;;;;;;;;23.33;21.33;;;;;;;;5095891;27;45640;-81
2023/09/24 01:17:53;;;;;;;;;33.33;25.67;;;;;;;;5088137;27;45994;-82
2023/09/24 01:20:22;;;;;;;;;28.00;24.00;;;;;;;;5095711;27;46186;-82
2023/09/24 01:22:49;;;;;;;;;35.00;30.00;;;;;;;;5092556;27;45459;-82
2023/09/24 01:25:14;;;;;;;;;27.67;25.00;;;;;;;;5095235;27;45500;-81
2023/09/24 01:27:39;;;;;;;;;27.67;23.67;;;;;;;;5082364;27;45397;-82
2023/09/24 01:30:06;;;;;;;;;34.00;26.67;;;;;;;;5079503;27;46720;-82
2023/09/24 01:32:31;;;;;;;;;17.67;16.00;;;;;;;;5092960;27;47096;-81
2023/09/24 01:34:56;;;;;;;;;28.00;24.00;;;;;;;;5082353;27;45768;-80
2023/09/24 01:37:22;;;;;;;;;20.67;19.67;;;;;;;;5093451;27;45343;-80
2023/09/24 01:39:49;;;;;;;;;28.00;24.00;;;;;;;;5098253;27;45763;-82
2023/09/24 01:42:15;;;;;;;;;18.00;17.33;;;;;;;;5079350;27;45389;-82
2023/09/24 01:44:41;;;;;;;;;25.33;23.67;;;;;;;;5097902;27;45381;-82
2023/09/24 01:47:07;;;;;;;;;25.00;22.33;;;;;;;;5095102;27;45373;-81
2023/09/24 01:49:33;;;;;;;;;34.00;28.00;;;;;;;;5074460;27;45960;-81
2023/09/24 01:51:58;;;;;;;;;27.67;25.67;;;;;;;;5085631;27;45729;-81
2023/09/24 01:54:26;;;;;;;;;29.00;22.67;;;;;;;;5084621;27;45410;-82
2023/09/24 01:56:54;;;;;;;;;33.00;29.67;;;;;;;;5085114;27;45483;-82
2023/09/24 01:59:19;;;;;;;;;34.33;29.00;;;;;;;;5098602;27;44774;-80
2023/09/24 02:01:45;;;;;;;;;27.67;22.67;;;;;;;;5088728;27;46324;-80
2023/09/24 02:04:10;;;;;;;;;30.67;27.00;;;;;;;;5103657;27;45454;-81
2023/09/24 02:06:35;;;;;;;;;30.33;24.00;;;;;;;;5093227;27;45626;-79
2023/09/24 02:09:01;;;;;;;;;26.33;24.33;;;;;;;;5091341;27;45885;-81
2023/09/24 02:11:27;;;;;;;;;29.33;26.00;;;;;;;;5084737;27;45935;-82
2023/09/24 02:13:53;;;;;;;;;29.33;26.00;;;;;;;;5103994;27;45741;-80
2023/09/24 02:16:18;;;;;;;;;19.67;18.67;;;;;;;;5098924;27;45475;-81
2023/09/24 02:18:43;;;;;;;;;28.33;24.00;;;;;;;;5090582;27;45603;-81
2023/09/24 02:21:15;;;;;;;;;25.00;22.67;;;;;;;;5098010;27;45596;-82
2023/09/24 02:23:41;;;;;;;;;28.67;21.00;;;;;;;;5082817;27;45370;-82
2023/09/24 02:26:09;;;;;;;;;23.67;20.33;;;;;;;;5098771;27;45807;-81
2023/09/24 02:28:38;;;;;;;;;27.33;22.67;;;;;;;;5092235;27;45471;-81
2023/09/24 02:31:05;;;;;;;;;27.33;25.00;;;;;;;;5084479;27;46953;-81
2023/09/24 02:33:30;;;;;;;;;28.33;27.00;;;;;;;;5090969;27;45740;-81
2023/09/24 02:35:55;;;;;;;;;28.33;25.33;;;;;;;;5093166;27;45741;-81
2023/09/24 02:38:22;;;;;;;;;28.33;25.67;;;;;;;;5092604;27;45401;-81
2023/09/24 02:40:47;;;;;;;;;28.67;26.00;;;;;;;;5084850;27;45810;-79
2023/09/24 02:43:13;;;;;;;;;26.00;23.67;;;;;;;;5097429;27;45400;-81
2023/09/24 02:45:38;;;;;;;;;31.33;27.67;;;;;;;;5091312;27;45762;-80
2023/09/24 02:48:07;;;;;;;;;23.00;22.00;;;;;;;;5097993;27;45443;-80
2023/09/24 02:50:32;;;;;;;;;30.33;23.33;;;;;;;;5091665;27;46461;-80
2023/09/24 02:52:59;;;;;;;;;28.00;24.67;;;;;;;;5098054;27;45941;-81
2023/09/24 02:55:25;;;;;;;;;25.00;21.00;;;;;;;;5079411;27;45730;-81
2023/09/24 02:57:51;;;;;;;;;28.67;21.67;;;;;;;;5089511;27;45358;-81
2023/09/24 03:00:21;;;;;;;;;28.33;24.33;;;;;;;;5092901;27;46776;-81
2023/09/24 03:02:47;;;;;;;;;17.00;17.00;;;;;;;;5096168;27;45307;-82
2023/09/24 03:05:19;;;;;;;;;25.00;22.67;;;;;;;;5084914;27;45401;-80
2023/09/24 03:07:44;;;;;;;;;25.00;23.67;;;;;;;;5084609;27;45568;-82
2023/09/24 03:10:10;;;;;;;;;27.00;24.00;;;;;;;;5092926;27;45774;-81
2023/09/24 03:12:36;;;;;;;;;22.67;21.33;;;;;;;;5086386;27;44928;-80
2023/09/24 03:15:02;;;;;;;;;21.67;19.33;;;;;;;;5094208;27;45399;-81
2023/09/24 03:17:28;;;;;;;;;28.00;26.33;;;;;;;;5098159;27;45960;-82
2023/09/24 03:19:53;;;;;;;;;30.33;22.67;;;;;;;;5097352;27;45479;-81
2023/09/24 03:22:20;;;;;;;;;21.33;17.00;;;;;;;;5097664;27;45788;-81
2023/09/24 03:24:47;;;;;;;;;27.33;25.33;;;;;;;;5076545;27;45656;-81
2023/09/24 03:27:13;;;;;;;;;25.67;22.33;;;;;;;;5096532;27;45506;-81
2023/09/24 03:29:38;;;;;;;;;24.00;24.00;;;;;;;;5092328;27;46991;-83
2023/09/24 03:32:03;;;;;;;;;26.00;20.67;;;;;;;;5100192;27;45806;-82
2023/09/24 03:34:29;;;;;;;;;26.00;20.67;;;;;;;;5089064;27;45339;-81
2023/09/24 03:36:54;;;;;;;;;21.67;21.00;;;;;;;;5091798;27;46996;-82
2023/09/24 03:39:20;;;;;;;;;25.00;23.33;;;;;;;;5083420;27;45453;-80
2023/09/24 03:41:45;;;;;;;;;24.33;23.00;;;;;;;;5086496;27;45511;-80
2023/09/24 03:44:11;;;;;;;;;25.33;20.00;;;;;;;;5086225;27;45488;-81
2023/09/24 03:46:36;;;;;;;;;21.33;21.00;;;;;;;;5096784;27;45397;-80
2023/09/24 03:49:01;;;;;;;;;25.00;24.67;;;;;;;;5094268;27;45659;-81
2023/09/24 03:51:27;;;;;;;;;26.67;21.67;;;;;;;;5097194;27;45651;-81
2023/09/24 03:53:52;;;;;;;;;21.00;21.00;;;;;;;;5097137;27;45524;-82
2023/09/24 03:56:17;;;;;;;;;21.67;19.67;;;;;;;;5090649;27;45345;-81
2023/09/24 03:58:43;;;;;;;;;22.33;19.00;;;;;;;;5080651;27;47234;-81
2023/09/24 04:01:11;;;;;;;;;26.33;22.33;;;;;;;;5074222;27;45914;-82
2023/09/24 04:03:37;;;;;;;;;22.67;20.67;;;;;;;;5091577;27;45726;-81
2023/09/24 04:06:11;;;;;;;;;25.67;19.67;;;;;;;;5105754;27;45687;-81
2023/09/24 04:08:36;;;;;;;;;24.33;21.67;;;;;;;;5093600;27;45635;-81
2023/09/24 04:11:06;;;;;;;;;26.00;22.67;;;;;;;;5085600;27;45498;-80
2023/09/24 04:13:32;;;;;;;;;25.67;21.33;;;;;;;;5092770;27;45680;-82
2023/09/24 04:16:04;;;;;;;;;17.33;15.67;;;;;;;;5095151;27;45417;-82
2023/09/24 04:18:29;;;;;;;;;20.67;20.67;;;;;;;;5080727;27;47013;-81
2023/09/24 04:20:55;;;;;;;;;22.00;22.00;;;;;;;;5079914;27;45655;-81
2023/09/24 04:23:21;;;;;;;;;19.67;16.67;;;;;;;;5091433;27;45610;-81
2023/09/24 04:25:47;;;;;;;;;26.00;23.00;;;;;;;;5099112;27;45401;-80
2023/09/24 04:28:14;;;;;;;;;28.00;22.33;;;;;;;;5097519;27;46253;-79
2023/09/24 04:30:40;;;;;;;;;24.00;22.00;;;;;;;;5080541;27;45614;-80
2023/09/24 04:33:09;;;;;;;;;26.00;23.67;;;;;;;;5075223;27;45655;-80
2023/09/24 04:35:34;;;;;;;;;22.00;19.00;;;;;;;;5078873;27;45503;-82
2023/09/24 04:38:00;;;;;;;;;21.00;18.67;;;;;;;;5072305;28;47103;-80
2023/09/24 04:40:26;;;;;;;;;26.00;21.67;;;;;;;;5086066;27;45730;-80
2023/09/24 04:42:52;;;;;;;;;24.33;20.33;;;;;;;;5082799;27;45410;-81
2023/09/24 04:45:20;;;;;;;;;26.67;19.67;;;;;;;;5090257;27;45542;-81
2023/09/24 04:47:46;;;;;;;;;23.33;19.67;;;;;;;;5080779;27;45522;-80
2023/09/24 04:50:13;;;;;;;;;23.00;20.67;;;;;;;;5091922;27;45348;-81
2023/09/24 04:52:41;;;;;;;;;24.00;20.67;;;;;;;;5084266;27;45890;-80
2023/09/24 04:55:08;;;;;;;;;25.00;22.33;;;;;;;;5077653;27;45545;-80
2023/09/24 04:57:33;;;;;;;;;22.00;19.00;;;;;;;;5078594;27;47289;-81
2023/09/24 04:59:59;;;;;;;;;22.67;19.33;;;;;;;;5090906;27;45564;-81
2023/09/24 05:02:24;;;;;;;;;23.33;22.33;;;;;;;;5093453;27;45417;-81
2023/09/24 05:04:50;;;;;;;;;20.00;20.00;;;;;;;;5079208;27;45788;-80
2023/09/24 05:07:15;;;;;;;;;23.00;21.33;;;;;;;;5076594;27;45743;-83
2023/09/24 05:09:41;;;;;;;;;21.00;18.33;;;;;;;;5091571;27;45756;-81
2023/09/24 05:12:06;;;;;;;;;27.00;23.00;;;;;;;;5094216;27;45584;-81
2023/09/24 05:14:31;;;;;;;;;18.33;16.33;;;;;;;;5085244;27;45737;-82
2023/09/24 05:16:58;;;;;;;;;19.00;16.00;;;;;;;;5092849;27;46199;-82
2023/09/24 05:19:23;;;;;;;;;21.00;18.67;;;;;;;;5085935;27;46542;-82
2023/09/24 05:21:48;;;;;;;;;23.33;20.00;;;;;;;;5096335;27;45599;-82
2023/09/24 05:24:14;;;;;;;;;19.33;19.33;;;;;;;;5092567;27;45518;-82
2023/09/24 05:26:40;;;;;;;;;18.67;18.67;;;;;;;;5079182;27;46662;-82
2023/09/24 05:29:05;;;;;;;;;23.33;20.33;;;;;;;;5089901;27;45473;-82
2023/09/24 05:31:30;;;;;;;;;23.33;20.67;;;;;;;;5053748;28;45442;-82
2023/09/24 05:33:56;;;;;;;;;11.67;10.67;;;;;;;;5077591;27;45943;-83
2023/09/24 05:36:22;;;;;;;;;20.00;17.00;;;;;;;;5093559;27;45806;-81
2023/09/24 05:38:48;;;;;;;;;18.67;17.67;;;;;;;;5086090;27;45466;-81
2023/09/24 05:41:13;;;;;;;;;17.00;15.67;;;;;;;;5092539;27;45386;-81
2023/09/24 05:43:44;;;;;;;;;16.33;15.67;;;;;;;;5080265;27;45480;-81
2023/09/24 05:46:09;;;;;;;;;18.33;16.67;;;;;;;;5087785;27;47113;-81
2023/09/24 05:48:35;;;;;;;;;16.33;14.33;;;;;;;;5082773;27;45959;-81
2023/09/24 05:51:02;;;;;;;;;23.00;21.67;;;;;;;;5084105;27;45404;-83
2023/09/24 05:53:27;;;;;;;;;18.67;18.33;;;;;;;;5090540;27;45692;-80
2023/09/24 05:55:53;;;;;;;;;30.33;22.33;;;;;;;;5090087;27;45937;-82
2023/09/24 05:58:18;;;;;;;;;19.67;17.33;;;;;;;;5084733;27;45984;-80
2023/09/24 06:00:47;;;;;;;;;16.00;15.00;;;;;;;;5093738;27;45649;-81
2023/09/24 06:03:14;;;;;;;;;42.00;34.75;;;;;;;;5091633;27;45883;-83
2023/09/24 06:05:39;;;;;;;;;37.25;24.50;;;;;;;;5079730;27;47050;-82
2023/09/24 06:08:05;;;;;;;;;23.67;20.67;;;;;;;;5082727;27;45492;-83
2023/09/24 06:10:31;;;;;;;;;20.67;16.67;;;;;;;;5089600;27;45515;-83
2023/09/24 06:12:56;;;;;;;;;71.00;55.50;;;;;;;;5081063;27;45547;-83
2023/09/24 06:15:21;;;;;;;;;18.67;16.00;;;;;;;;5089535;27;46477;-82
2023/09/24 06:17:49;;;;;;;;;17.33;14.33;;;;;;;;5083034;27;45928;-81
2023/09/24 06:20:15;;;;;;;;;20.00;16.33;;;;;;;;5092748;27;45651;-82
2023/09/24 06:22:44;;;;;;;;;17.00;14.33;;;;;;;;5091239;27;45992;-80
2023/09/24 06:25:10;;;;;;;;;24.33;19.00;;;;;;;;5088315;27;46148;-81
2023/09/24 06:27:35;;;;;;;;;20.67;17.33;;;;;;;;5089463;27;45727;-84
2023/09/24 06:30:03;;;;;;;;;18.00;16.67;;;;;;;;5080969;27;45458;-82
2023/09/24 06:32:29;;;;;;;;;18.00;13.67;;;;;;;;5094935;27;45828;-83
2023/09/24 06:34:54;;;;;;;;;15.33;14.33;;;;;;;;5082747;27;47650;-83
2023/09/24 06:37:20;;;;;;;;;18.67;15.00;;;;;;;;5095814;27;45910;-81
2023/09/24 06:39:45;;;;;;;;;21.33;16.33;;;;;;;;5097635;27;45471;-84
2023/09/24 06:42:10;;;;;;;;;17.67;16.67;;;;;;;;5081740;27;45716;-82
2023/09/24 06:44:35;;;;;;;;;15.33;15.33;;;;;;;;5089785;27;45799;-82
2023/09/24 06:47:01;;;;;;;;;17.67;14.33;;;;;;;;5078282;27;45539;-81
2023/09/24 06:49:27;;;;;;;;;19.67;15.00;;;;;;;;5082520;27;45841;-87
2023/09/24 06:51:53;;;;;;;;;16.33;15.00;;;;;;;;5080643;27;45429;-82
2023/09/24 06:54:18;;;;;;;;;16.00;16.00;;;;;;;;5095038;27;45952;-82
2023/09/24 06:56:45;;;;;;;;;18.00;15.00;;;;;;;;5093527;27;45742;-82
2023/09/24 06:59:10;;;;;;;;;16.00;11.67;;;;;;;;5089322;27;45895;-83
2023/09/24 07:01:36;;;;;;;;;13.67;13.67;;;;;;;;5085758;27;45476;-81
2023/09/24 07:04:01;;;;;;;;;11.33;11.33;;;;;;;;5097262;27;47204;-82
2023/09/24 07:06:27;;;;;;;;;9.67;9.67;;;;;;;;5095225;27;46092;-82
2023/09/24 07:08:52;;;;;;;;;18.00;14.00;;;;;;;;5086562;27;45990;-82
2023/09/24 07:11:21;;;;;;;;;13.33;11.33;;;;;;;;5091409;27;44822;-81
2023/09/24 07:13:46;;;;;;;;;12.67;10.00;;;;;;;;5093870;27;45560;-82
2023/09/24 07:16:13;;;;;;;;;15.33;14.33;;;;;;;;5101893;27;45536;-81
2023/09/24 07:18:38;;;;;;;;;13.67;13.67;;;;;;;;5085477;27;45476;-79
2023/09/24 07:21:04;;;;;;;;;13.00;12.67;;;;;;;;5104320;27;45534;-81
2023/09/24 07:23:29;;;;;;;;;10.67;9.67;;;;;;;;5100571;27;47397;-80
2023/09/24 07:25:54;;;;;;;;;10.33;10.33;;;;;;;;5086770;27;45634;-81
2023/09/24 07:28:24;;;;;;;;;10.67;10.67;;;;;;;;5092334;27;45437;-82
2023/09/24 07:30:50;;;;;;;;;10.00;10.00;;;;;;;;5082709;27;45404;-82
2023/09/24 07:33:15;;;;;;;;;7.67;6.00;;;;;;;;5094347;27;47434;-84
2023/09/24 07:35:40;;;;;;;;;10.33;9.67;;;;;;;;5086514;27;45191;-82
2023/09/24 07:38:06;;;;;;;;;11.67;9.67;;;;;;;;5085411;27;45845;-81
2023/09/24 07:40:31;;;;;;;;;10.33;9.00;;;;;;;;5082355;27;46146;-79
2023/09/24 07:42:56;;;;;;;;;8.00;8.00;;;;;;;;5081454;27;47275;-81
2023/09/24 07:45:22;;;;;;;;;12.33;11.33;;;;;;;;5091460;27;45784;-80
2023/09/24 07:47:47;;;;;;;;;10.33;10.00;;;;;;;;5103029;27;45913;-82
2023/09/24 07:50:12;;;;;;;;;9.67;8.00;;;;;;;;5087473;27;45444;-82
2023/09/24 07:52:38;;;;;;;;;12.33;9.00;;;;;;;;5097267;27;45421;-82
2023/09/24 07:55:04;;;;;;;;;12.67;11.33;;;;;;;;5102971;27;45458;-83
2023/09/24 07:57:29;;;;;;;;;9.67;6.67;;;;;;;;5102486;27;45464;-83
2023/09/24 07:59:55;;;;;;;;;12.33;8.33;;;;;;;;5091744;27;45297;-80
2023/09/24 08:02:20;;;;;;;;;13.67;10.00;;;;;;;;5108305;27;47217;-81
2023/09/24 08:04:46;;;;;;;;;9.33;7.00;;;;;;;;5094884;27;44915;-83
2023/09/24 08:07:11;;;;;;;;;6.00;3.33;;;;;;;;5092517;27;45478;-82
2023/09/24 08:09:38;;;;;;;;;8.67;7.33;;;;;;;;5099529;27;45427;-81
2023/09/24 08:12:03;;;;;;;;;11.33;8.33;;;;;;;;5105558;27;45349;-82
2023/09/24 08:14:28;;;;;;;;;17.33;11.33;;;;;;;;5093335;27;45405;-86
2023/09/24 08:16:54;;;;;;;;;6.00;5.00;;;;;;;;5093867;27;45529;-81
2023/09/24 08:19:19;;;;;;;;;4.33;4.33;;;;;;;;5094278;27;45835;-81
2023/09/24 08:21:45;;;;;;;;;11.33;9.67;;;;;;;;5100717;27;45490;-81
2023/09/24 08:24:10;;;;;;;;;10.67;10.00;;;;;;;;5097077;27;45515;-82
2023/09/24 08:26:36;;;;;;;;;16.33;15.33;;;;;;;;5089128;27;44795;-82
2023/09/24 08:29:05;;;;;;;;;10.00;9.33;;;;;;;;5086938;27;46003;-82
2023/09/24 08:31:31;;;;;;;;;10.67;9.67;;;;;;;;5083327;27;45621;-82
2023/09/24 08:34:03;;;;;;;;;10.33;9.67;;;;;;;;5077368;27;45961;-75
2023/09/24 08:36:29;;;;;;;;;7.00;4.67;;;;;;;;5083422;27;45548;-76
2023/09/24 08:38:55;;;;;;;;;9.00;6.00;;;;;;;;5089230;27;46078;-76
2023/09/24 08:41:21;;;;;;;;;12.00;9.33;;;;;;;;5076773;27;48594;-77
2023/09/24 08:43:46;;;;;;;;;6.67;5.00;;;;;;;;5088748;27;45740;-76
2023/09/24 08:46:12;;;;;;;;;4.33;3.00;;;;;;;;5078376;27;45963;-75
2023/09/24 08:48:38;;;;;;;;;4.33;4.33;;;;;;;;5077239;27;45677;-76
2023/09/24 08:51:05;;;;;;;;;9.00;6.00;;;;;;;;5087159;27;45549;-76
2023/09/24 08:53:31;;;;;;;;;8.00;4.67;;;;;;;;5078115;27;45915;-77
2023/09/24 08:55:57;;;;;;;;;5.33;3.67;;;;;;;;5075382;27;45610;-76
2023/09/24 08:58:23;;;;;;;;;6.00;5.00;;;;;;;;5074497;27;45579;-77
2023/09/24 09:00:48;;;;;;;;;6.33;5.33;;;;;;;;5079207;27;45590;-77
2023/09/24 09:03:13;;;;;;;;;4.00;3.00;;;;;;;;5081787;27;45444;-77
2023/09/24 09:05:39;;;;;;;;;4.67;3.00;;;;;;;;5077791;27;45561;-76
2023/09/24 09:08:04;;;;;;;;;6.67;5.00;;;;;;;;5085673;27;45669;-76
2023/09/24 09:10:31;;;;;;;;;7.00;4.67;;;;;;;;5080198;27;48831;-76
2023/09/24 09:13:09;;;;;;;;;5.67;4.33;;;;;;;;5078333;27;45511;-77
2023/09/24 09:15:35;;;;;;;;;4.25;3.00;;;;;;;;5075618;27;45930;-77
2023/09/24 09:18:01;;;;;;;;;5.00;2.33;;;;;;;;5074048;27;45460;-75
2023/09/24 09:20:46;;;;;;;;;3.67;2.00;;;;;;;;5082510;27;46091;-77
2023/09/24 09:23:12;;;;;;;;;3.00;3.00;;;;;;;;5076065;27;47291;-78
2023/09/24 09:25:52;;;;;;;;;3.75;2.75;;;;;;;;5073816;27;45789;-77
2023/09/24 09:28:21;;;;;;;;;2.00;2.00;;;;;;;;5078872;27;46456;-75
2023/09/24 09:30:58;;;;;;;;;6.00;3.00;;;;;;;;5072061;27;46180;-78
2023/09/24 09:33:25;;;;;;;;;3.25;2.25;;;;;;;;5083902;27;45616;-77
2023/09/24 09:35:51;;;;;;;;;2.00;2.00;;;;;;;;5082306;27;45618;-77
2023/09/24 09:38:17;;;;;;;;;3.50;3.25;;;;;;;;5092312;27;46838;-78
2023/09/24 09:40:42;;;;;;;;;2.75;1.00;;;;;;;;5079624;27;45955;-79
2023/09/24 09:43:08;;;;;;;;;3.00;2.00;;;;;;;;5079266;27;45388;-76
2023/09/24 09:45:35;;;;;;;;;3.50;3.00;;;;;;;;5076503;27;45526;-75
2023/09/24 09:48:03;;;;;;;;;3.00;2.75;;;;;;;;5077909;27;45428;-76
2023/09/24 09:50:31;;;;;;;;;5.00;3.00;;;;;;;;5079344;27;46012;-77
2023/09/24 09:52:57;;;;;;;;;3.00;3.00;;;;;;;;5076908;27;45642;-76
2023/09/24 09:55:23;;;;;;;;;3.00;3.00;;;;;;;;5081103;27;45764;-78
2023/09/24 09:57:49;;;;;;;;;5.00;1.00;;;;;;;;5080407;27;45453;-76
2023/09/24 10:00:16;;;;;;;;;2.00;2.00;;;;;;;;5082227;27;45617;-77
2023/09/24 10:02:42;;;;;;;;;3.40;2.20;;;;;;;;5071032;27;45721;-76
2023/09/24 10:05:09;;;;;;;;;2.00;2.00;;;;;;;;5091509;27;45393;-77
2023/09/24 10:07:37;;;;;;;;;6.50;4.00;;;;;;;;5075824;27;46132;-78
2023/09/24 10:10:21;;;;;;;;;5.25;1.25;;;;;;;;5092253;27;45569;-86
2023/09/24 10:12:55;;;;;;;;;3.00;1.60;;;;;;;;5080802;27;46115;-80
2023/09/24 10:15:27;;;;;;;;;5.50;3.00;;;;;;;;5079766;27;45918;-78
2023/09/24 10:18:15;;;;;;;;;0.25;0.25;;;;;;;;5076129;27;46856;-78
2023/09/24 10:20:49;;;;;;;;;1.00;1.00;;;;;;;;5085353;27;45981;-77
2023/09/24 10:23:30;;;;;;;;;2.00;2.00;;;;;;;;5079705;27;45484;-83
2023/09/24 10:25:59;;;;;;;;;5.50;4.00;;;;;;;;5088691;27;45750;-83
2023/09/24 10:28:44;;;;;;;;;2.25;2.25;;;;;;;;5076887;27;46374;-82
2023/09/24 10:31:11;;;;;;;;;1.20;1.20;;;;;;;;5079314;27;46988;-83
2023/09/24 10:33:56;;;;;;;;;3.40;1.60;;;;;;;;5095303;27;45775;-84
2023/09/24 10:36:35;;;;;;;;;10.25;10.25;;;;;;;;5085316;27;45515;-84
2023/09/24 10:39:03;;;;;;;;;1.50;1.25;;;;;;;;5089037;27;45924;-84
2023/09/24 10:41:28;;;;;;;;;1.25;1.25;;;;;;;;5094591;27;45786;-83
2023/09/24 10:44:12;;;;;;;;;2.75;1.50;;;;;;;;5077131;27;45583;-84
2023/09/24 10:46:38;;;;;;;;;2.00;0.75;;;;;;;;5085701;27;45965;-77
2023/09/24 10:49:03;;;;;;;;;4.75;3.00;;;;;;;;5082693;27;45895;-80
2023/09/24 10:51:28;;;;;;;;;5.75;5.50;;;;;;;;5090723;27;47231;-80
2023/09/24 10:54:12;;;;;;;;;5.75;3.50;;;;;;;;5095073;27;45581;-80
2023/09/24 10:56:38;;;;;;;;;2.00;2.00;;;;;;;;5075917;27;45375;-80
2023/09/24 10:59:06;;;;;;;;;4.00;2.00;;;;;;;;5081804;27;46902;-79
2023/09/24 11:01:31;;;;;;;;;3.00;3.00;;;;;;;;5095122;27;45482;-78
2023/09/24 11:03:59;;;;;;;;;1.00;1.00;;;;;;;;5078544;27;45778;-78
2023/09/24 11:06:34;;;;;;;;;2.00;2.00;;;;;;;;5088071;27;45545;-81
2023/09/24 11:09:15;;;;;;;;;9.00;4.50;;;;;;;;5079412;27;45898;-77
2023/09/24 11:11:41;;;;;;;;;2.00;2.00;;;;;;;;5082211;27;45518;-78
2023/09/24 11:14:14;;;;;;;;;1.00;1.00;;;;;;;;5078272;27;45408;-79
2023/09/24 11:16:39;;;;;;;;;4.00;3.00;;;;;;;;5085202;27;45690;-79
2023/09/24 11:19:05;;;;;;;;;2.00;2.00;;;;;;;;5083235;27;46550;-82
2023/09/24 11:21:31;;;;;;;;;5.00;3.00;;;;;;;;5087540;27;45530;-76
2023/09/24 11:24:02;;;;;;;;;2.00;2.00;;;;;;;;5084913;27;45741;-79
2023/09/24 11:26:44;;;;;;;;;2.75;2.75;;;;;;;;5088656;27;45773;-78
2023/09/24 11:29:12;;;;;;;;;3.50;1.50;;;;;;;;5091431;27;45590;-87
2023/09/24 11:31:42;;;;;;;;;2.00;1.00;;;;;;;;5089558;27;45844;-76
2023/09/24 11:34:08;;;;;;;;;4.50;2.25;;;;;;;;5075794;27;45893;-75
2023/09/24 11:36:33;;;;;;;;;5.50;2.00;;;;;;;;5091351;27;45940;-78
2023/09/24 11:39:00;;;;;;;;;2.00;2.00;;;;;;;;5087770;27;45765;-78
2023/09/24 11:41:25;;;;;;;;;2.00;2.00;;;;;;;;5085789;27;45554;-78
2023/09/24 11:43:57;;;;;;;;;1.50;1.00;;;;;;;;5071725;27;45428;-78
2023/09/24 11:46:27;;;;;;;;;3.00;1.50;;;;;;;;5082732;27;45638;-77
2023/09/24 11:48:54;;;;;;;;;4.00;2.75;;;;;;;;5079875;27;45817;-77
2023/09/24 11:51:20;;;;;;;;;4.25;3.00;;;;;;;;5073970;27;46178;-75
2023/09/24 11:53:45;;;;;;;;;4.00;4.00;;;;;;;;5089629;27;45811;-78
2023/09/24 11:56:11;;;;;;;;;3.75;2.50;;;;;;;;5091952;27;45669;-76
2023/09/24 11:58:37;;;;;;;;;3.75;3.00;;;;;;;;5083059;27;45740;-77
2023/09/24 12:01:04;;;;;;;;;4.00;3.00;;;;;;;;5076204;27;48313;-77
2023/09/24 12:03:29;;;;;;;;;3.25;2.00;;;;;;;;5079593;27;45408;-79
2023/09/24 12:05:54;;;;;;;;;5.00;2.50;;;;;;;;5085157;27;45896;-79
2023/09/24 12:08:20;;;;;;;;;5.50;4.25;;;;;;;;5079288;27;45550;-77
2023/09/24 12:10:50;;;;;;;;;2.00;2.00;;;;;;;;5083601;27;46844;-76
2023/09/24 12:13:17;;;;;;;;;4.75;3.25;;;;;;;;5087053;27;45394;-77
2023/09/24 12:15:43;;;;;;;;;1.50;1.25;;;;;;;;5084389;27;45946;-77
2023/09/24 12:18:08;;;;;;;;;4.75;3.25;;;;;;;;5078695;27;45772;-78
2023/09/24 12:20:42;;;;;;;;;2.25;2.00;;;;;;;;5077561;27;45590;-80
2023/09/24 12:23:08;;;;;;;;;4.25;4.00;;;;;;;;5089377;27;45481;-76
2023/09/24 12:25:36;;;;;;;;;2.25;2.00;;;;;;;;5081704;27;46609;-77
2023/09/24 12:28:06;;;;;;;;;3.00;3.00;;;;;;;;5077859;27;45499;-75
2023/09/24 12:30:32;;;;;;;;;3.75;3.00;;;;;;;;5077663;27;47624;-76
2023/09/24 12:32:57;;;;;;;;;3.00;2.00;;;;;;;;5082508;27;45701;-78
2023/09/24 12:35:24;;;;;;;;;2.00;2.00;;;;;;;;5076711;27;45707;-76
2023/09/24 12:37:49;;;;;;;;;3.00;2.00;;;;;;;;5077667;27;46209;-78
2023/09/24 12:40:14;;;;;;;;;2.50;2.50;;;;;;;;5074807;27;48129;-78
2023/09/24 12:42:40;;;;;;;;;3.00;3.00;;;;;;;;5073354;27;45547;-76
2023/09/24 12:45:06;;;;;;;;;1.25;1.25;;;;;;;;5073838;27;45702;-77
2023/09/24 12:47:33;;;;;;;;;3.75;2.00;;;;;;;;5080729;27;47268;-78
2023/09/24 12:50:03;;;;;;;;;2.00;2.00;;;;;;;;5076317;27;45554;-76
2023/09/24 12:52:36;;;;;;;;;2.25;2.25;;;;;;;;5075632;27;45474;-77
2023/09/24 12:55:02;;;;;;;;;2.25;2.25;;;;;;;;5079203;27;45494;-76
2023/09/24 12:57:28;;;;;;;;;4.00;2.00;;;;;;;;5075761;27;45507;-76
2023/09/24 12:59:53;;;;;;;;;2.25;2.00;;;;;;;;5080050;27;46565;-77
2023/09/24 13:02:19;;;;;;;;;2.50;2.00;;;;;;;;5087356;27;45787;-83
2023/09/24 13:04:44;;;;;;;;;2.50;2.50;;;;;;;;5083806;27;45404;-83
2023/09/24 13:07:10;;;;;;;;;3.00;3.00;;;;;;;;5077934;27;45899;-82
2023/09/24 13:09:35;;;;;;;;;4.00;3.00;;;;;;;;5080554;27;45435;-81
2023/09/24 13:12:01;;;;;;;;;3.00;3.00;;;;;;;;5086821;27;45263;-78
2023/09/24 13:14:26;;;;;;;;;2.00;2.00;;;;;;;;5087293;27;45757;-78
2023/09/24 13:16:52;;;;;;;;;2.50;2.00;;;;;;;;5088499;27;45481;-77
2023/09/24 13:19:17;;;;;;;;;2.00;2.00;;;;;;;;5082496;27;45480;-76
2023/09/24 13:21:42;;;;;;;;;2.00;1.00;;;;;;;;5089399;27;45396;-79
2023/09/24 13:24:08;;;;;;;;;1.75;1.00;;;;;;;;5084837;27;45341;-77
2023/09/24 13:26:34;;;;;;;;;1.00;1.00;;;;;;;;5089764;27;45263;-77
2023/09/24 13:28:59;;;;;;;;;2.25;2.25;;;;;;;;5087944;27;47306;-77
2023/09/24 13:31:24;;;;;;;;;5.00;2.00;;;;;;;;5087259;27;45487;-77
2023/09/24 13:33:49;;;;;;;;;1.25;1.25;;;;;;;;5086255;27;46011;-77
2023/09/24 13:36:15;;;;;;;;;2.50;1.00;;;;;;;;5091912;27;45993;-76
2023/09/24 13:38:40;;;;;;;;;2.75;2.75;;;;;;;;5080003;27;45536;-77
2023/09/24 13:41:06;;;;;;;;;2.00;1.75;;;;;;;;5083467;27;45350;-77
2023/09/24 13:43:31;;;;;;;;;1.00;1.00;;;;;;;;5077052;27;45777;-77
2023/09/24 13:45:56;;;;;;;;;2.00;2.00;;;;;;;;5081151;27;45850;-78
2023/09/24 13:48:21;;;;;;;;;2.75;0.50;;;;;;;;5080536;27;46373;-77
2023/09/24 13:50:47;;;;;;;;;2.67;2.67;;;;;;;;5082319;27;45605;-78
2023/09/24 13:53:12;;;;;;;;;4.00;2.25;;;;;;;;5063995;27;45790;-77
2023/09/24 13:55:38;;;;;;;;;1.00;1.00;;;;;;;;5077575;27;45537;-78
2023/09/24 13:58:03;;;;;;;;;4.75;2.50;;;;;;;;5078548;27;45535;-81
2023/09/24 14:00:29;;;;;;;;;3.75;3.75;;;;;;;;5076470;27;45834;-77
2023/09/24 14:02:54;;;;;;;;;3.50;1.75;;;;;;;;5077907;27;45884;-77
2023/09/24 14:05:24;;;;;;;;;2.75;2.00;;;;;;;;5089444;27;45455;-75
2023/09/24 14:13:26;;;;;;;;;1.25;1.25;;;;;;;;5085893;27;45773;-78
2023/09/24 14:15:52;;;;;;;;;2.00;2.00;;;;;;;;5095632;27;45761;-77
2023/09/24 14:18:17;;;;;;;;;3.50;2.50;;;;;;;;5077943;27;47163;-84
2023/09/24 14:20:43;;;;;;;;;4.00;1.25;;;;;;;;5090594;27;46198;-83
2023/09/24 14:23:09;;;;;;;;;5.00;3.00;;;;;;;;5080362;27;45660;-82
2023/09/24 14:25:39;;;;;;;;;2.50;2.50;;;;;;;;5093736;27;45825;-82
2023/09/24 14:28:04;;;;;;;;;4.33;3.00;;;;;;;;5075510;27;47974;-83
2023/09/24 14:30:29;;;;;;;;;3.75;3.75;;;;;;;;5091928;27;45484;-83
2023/09/24 14:32:55;;;;;;;;;1.50;1.25;;;;;;;;5091932;27;45599;-74